sensor_id;sensor_type;location;lat;lon;timestamp;P1;durP1;ratioP1;P2;durP2;ratioP2
59006;SDS011;44792;52.760;6.726;2022-07-22T00:00:12;12.13;;;3.63;;
59006;SDS011;44792;52.760;6.726;2022-07-22T00:02:38;10.10;;;2.88;;
59006;SDS011;44792;52.760;6.726;2022-07-22T00:05:04;13.75;;;2.80;;
59006;SDS011;44792;52.760;6.726;2022-07-22T00:07:30;15.30;;;3.20;;
59006;SDS011;44792;52.760;6.726;2022-07-22T00:09:56;6.70;;;3.00;;
59006;SDS011;44792;52.760;6.726;2022-07-22T00:12:21;10.35;;;3.17;;
59006;SDS011;44792;52.760;6.726;2022-07-22T00:14:47;13.15;;;3.25;;
59006;SDS011;44792;52.760;6.726;2022-07-22T00:17:12;12.88;;;3.42;;
59006;SDS011;44792;52.760;6.726;2022-07-22T00:19:38;10.95;;;3.50;;
59006;SDS011;44792;52.760;6.726;2022-07-22T00:22:04;13.65;;;3.17;;
59006;SDS011;44792;52.760;6.726;2022-07-22T00:24:29;12.98;;;2.95;;
59006;SDS011;44792;52.760;6.726;2022-07-22T00:26:55;10.00;;;3.30;;
59006;SDS011;44792;52.760;6.726;2022-07-22T00:29:20;13.50;;;3.45;;
59006;SDS011;44792;52.760;6.726;2022-07-22T00:31:46;13.80;;;3.58;;
59006;SDS011;44792;52.760;6.726;2022-07-22T00:34:12;11.65;;;3.67;;
59006;SDS011;44792;52.760;6.726;2022-07-22T00:36:37;19.25;;;3.38;;
59006;SDS011;44792;52.760;6.726;2022-07-22T00:39:03;10.48;;;3.42;;
59006;SDS011;44792;52.760;6.726;2022-07-22T00:41:28;9.90;;;2.58;;
59006;SDS011;44792;52.760;6.726;2022-07-22T00:43:56;11.50;;;3.67;;
59006;SDS011;44792;52.760;6.726;2022-07-22T00:46:28;9.10;;;3.30;;
59006;SDS011;44792;52.760;6.726;2022-07-22T00:48:54;13.20;;;4.18;;
59006;SDS011;44792;52.760;6.726;2022-07-22T00:51:22;8.90;;;3.30;;
59006;SDS011;44792;52.760;6.726;2022-07-22T00:53:48;15.05;;;3.45;;
59006;SDS011;44792;52.760;6.726;2022-07-22T00:56:15;8.43;;;2.85;;
59006;SDS011;44792;52.760;6.726;2022-07-22T00:58:41;10.32;;;3.40;;
59006;SDS011;44792;52.760;6.726;2022-07-22T01:01:08;10.82;;;3.10;;
59006;SDS011;44792;52.760;6.726;2022-07-22T01:03:34;15.82;;;3.38;;
59006;SDS011;44792;52.760;6.726;2022-07-22T01:06:00;12.90;;;3.05;;
59006;SDS011;44792;52.760;6.726;2022-07-22T01:08:26;9.90;;;3.55;;
59006;SDS011;44792;52.760;6.726;2022-07-22T01:10:51;10.70;;;3.20;;
59006;SDS011;44792;52.760;6.726;2022-07-22T01:13:17;11.55;;;3.30;;
59006;SDS011;44792;52.760;6.726;2022-07-22T01:15:43;8.55;;;3.03;;
59006;SDS011;44792;52.760;6.726;2022-07-22T01:18:08;13.00;;;3.42;;
59006;SDS011;44792;52.760;6.726;2022-07-22T01:20:35;11.20;;;3.35;;
59006;SDS011;44792;52.760;6.726;2022-07-22T01:23:00;10.20;;;3.22;;
59006;SDS011;44792;52.760;6.726;2022-07-22T01:25:26;15.68;;;3.80;;
59006;SDS011;44792;52.760;6.726;2022-07-22T01:27:52;13.23;;;3.30;;
59006;SDS011;44792;52.760;6.726;2022-07-22T01:30:18;15.10;;;3.35;;
59006;SDS011;44792;52.760;6.726;2022-07-22T01:32:44;10.20;;;3.42;;
59006;SDS011;44792;52.760;6.726;2022-07-22T01:35:09;8.40;;;3.60;;
59006;SDS011;44792;52.760;6.726;2022-07-22T01:37:35;10.63;;;3.33;;
59006;SDS011;44792;52.760;6.726;2022-07-22T01:40:01;11.18;;;2.72;;
59006;SDS011;44792;52.760;6.726;2022-07-22T01:42:27;11.38;;;2.95;;
59006;SDS011;44792;52.760;6.726;2022-07-22T01:44:53;15.13;;;3.08;;
59006;SDS011;44792;52.760;6.726;2022-07-22T01:47:18;9.10;;;3.60;;
59006;SDS011;44792;52.760;6.726;2022-07-22T01:49:44;9.68;;;3.55;;
59006;SDS011;44792;52.760;6.726;2022-07-22T01:52:09;12.82;;;2.83;;
59006;SDS011;44792;52.760;6.726;2022-07-22T01:54:35;10.48;;;3.28;;
59006;SDS011;44792;52.760;6.726;2022-07-22T01:57:01;10.57;;;3.03;;
59006;SDS011;44792;52.760;6.726;2022-07-22T01:59:27;13.45;;;3.05;;
59006;SDS011;44792;52.760;6.726;2022-07-22T02:01:52;11.95;;;3.30;;
59006;SDS011;44792;52.760;6.726;2022-07-22T02:04:18;11.52;;;2.60;;
59006;SDS011;44792;52.760;6.726;2022-07-22T02:06:44;6.85;;;2.90;;
59006;SDS011;44792;52.760;6.726;2022-07-22T02:09:10;9.52;;;3.55;;
59006;SDS011;44792;52.760;6.726;2022-07-22T02:11:35;10.90;;;2.53;;
59006;SDS011;44792;52.760;6.726;2022-07-22T02:14:01;7.70;;;2.92;;
59006;SDS011;44792;52.760;6.726;2022-07-22T02:16:27;11.73;;;3.33;;
59006;SDS011;44792;52.760;6.726;2022-07-22T02:18:53;11.82;;;3.10;;
59006;SDS011;44792;52.760;6.726;2022-07-22T02:21:19;10.82;;;2.88;;
59006;SDS011;44792;52.760;6.726;2022-07-22T02:23:45;11.02;;;3.13;;
59006;SDS011;44792;52.760;6.726;2022-07-22T02:26:11;10.15;;;2.78;;
59006;SDS011;44792;52.760;6.726;2022-07-22T02:28:36;9.15;;;2.72;;
59006;SDS011;44792;52.760;6.726;2022-07-22T02:31:02;14.18;;;3.58;;
59006;SDS011;44792;52.760;6.726;2022-07-22T02:33:28;9.95;;;2.60;;
59006;SDS011;44792;52.760;6.726;2022-07-22T02:35:54;10.40;;;2.97;;
59006;SDS011;44792;52.760;6.726;2022-07-22T02:38:20;9.30;;;2.83;;
59006;SDS011;44792;52.760;6.726;2022-07-22T02:40:46;8.20;;;3.17;;
59006;SDS011;44792;52.760;6.726;2022-07-22T02:43:12;11.45;;;2.33;;
59006;SDS011;44792;52.760;6.726;2022-07-22T02:45:37;8.82;;;2.85;;
59006;SDS011;44792;52.760;6.726;2022-07-22T02:48:03;7.60;;;3.15;;
59006;SDS011;44792;52.760;6.726;2022-07-22T02:50:29;10.70;;;2.80;;
59006;SDS011;44792;52.760;6.726;2022-07-22T02:52:54;8.48;;;2.70;;
59006;SDS011;44792;52.760;6.726;2022-07-22T02:55:20;8.35;;;2.50;;
59006;SDS011;44792;52.760;6.726;2022-07-22T02:57:45;8.20;;;2.30;;
59006;SDS011;44792;52.760;6.726;2022-07-22T03:00:11;11.00;;;2.38;;
59006;SDS011;44792;52.760;6.726;2022-07-22T03:02:38;8.93;;;2.63;;
59006;SDS011;44792;52.760;6.726;2022-07-22T03:05:04;8.25;;;2.60;;
59006;SDS011;44792;52.760;6.726;2022-07-22T03:07:31;9.63;;;2.70;;
59006;SDS011;44792;52.760;6.726;2022-07-22T03:09:57;8.57;;;2.28;;
59006;SDS011;44792;52.760;6.726;2022-07-22T03:12:23;12.35;;;2.88;;
59006;SDS011;44792;52.760;6.726;2022-07-22T03:14:49;10.40;;;2.72;;
59006;SDS011;44792;52.760;6.726;2022-07-22T03:17:14;11.60;;;2.28;;
59006;SDS011;44792;52.760;6.726;2022-07-22T03:19:40;11.13;;;2.40;;
59006;SDS011;44792;52.760;6.726;2022-07-22T03:22:06;9.10;;;2.50;;
59006;SDS011;44792;52.760;6.726;2022-07-22T03:24:31;11.55;;;2.63;;
59006;SDS011;44792;52.760;6.726;2022-07-22T03:26:57;7.30;;;2.20;;
59006;SDS011;44792;52.760;6.726;2022-07-22T03:29:22;8.45;;;2.53;;
59006;SDS011;44792;52.760;6.726;2022-07-22T03:31:48;3.83;;;1.98;;
59006;SDS011;44792;52.760;6.726;2022-07-22T03:34:13;10.55;;;2.35;;
59006;SDS011;44792;52.760;6.726;2022-07-22T03:36:39;6.13;;;2.40;;
59006;SDS011;44792;52.760;6.726;2022-07-22T03:39:05;4.97;;;2.15;;
59006;SDS011;44792;52.760;6.726;2022-07-22T03:41:30;5.70;;;2.45;;
59006;SDS011;44792;52.760;6.726;2022-07-22T03:43:56;12.40;;;3.08;;
59006;SDS011;44792;52.760;6.726;2022-07-22T03:46:21;9.90;;;2.35;;
59006;SDS011;44792;52.760;6.726;2022-07-22T03:48:47;10.23;;;2.40;;
59006;SDS011;44792;52.760;6.726;2022-07-22T03:51:12;11.30;;;2.60;;
59006;SDS011;44792;52.760;6.726;2022-07-22T03:53:38;8.15;;;2.58;;
59006;SDS011;44792;52.760;6.726;2022-07-22T03:56:04;6.82;;;1.98;;
59006;SDS011;44792;52.760;6.726;2022-07-22T03:58:30;10.80;;;2.67;;
59006;SDS011;44792;52.760;6.726;2022-07-22T04:00:55;13.02;;;2.38;;
59006;SDS011;44792;52.760;6.726;2022-07-22T04:03:21;5.40;;;2.35;;
59006;SDS011;44792;52.760;6.726;2022-07-22T04:05:46;8.15;;;2.70;;
59006;SDS011;44792;52.760;6.726;2022-07-22T04:08:12;9.27;;;2.83;;
59006;SDS011;44792;52.760;6.726;2022-07-22T04:10:38;7.32;;;2.17;;
59006;SDS011;44792;52.760;6.726;2022-07-22T04:13:04;12.20;;;3.00;;
59006;SDS011;44792;52.760;6.726;2022-07-22T04:15:30;6.20;;;2.25;;
59006;SDS011;44792;52.760;6.726;2022-07-22T04:17:55;12.18;;;2.85;;
59006;SDS011;44792;52.760;6.726;2022-07-22T04:20:21;14.43;;;2.90;;
59006;SDS011;44792;52.760;6.726;2022-07-22T04:22:47;7.15;;;2.80;;
59006;SDS011;44792;52.760;6.726;2022-07-22T04:25:13;9.05;;;2.97;;
59006;SDS011;44792;52.760;6.726;2022-07-22T04:27:39;6.88;;;2.30;;
59006;SDS011;44792;52.760;6.726;2022-07-22T04:30:06;13.32;;;2.88;;
59006;SDS011;44792;52.760;6.726;2022-07-22T04:32:32;7.20;;;2.38;;
59006;SDS011;44792;52.760;6.726;2022-07-22T04:34:57;10.45;;;2.80;;
59006;SDS011;44792;52.760;6.726;2022-07-22T04:37:23;6.97;;;2.40;;
59006;SDS011;44792;52.760;6.726;2022-07-22T04:39:49;9.80;;;2.28;;
59006;SDS011;44792;52.760;6.726;2022-07-22T04:42:14;8.10;;;2.38;;
59006;SDS011;44792;52.760;6.726;2022-07-22T04:44:40;6.10;;;2.25;;
59006;SDS011;44792;52.760;6.726;2022-07-22T04:47:05;5.90;;;2.42;;
59006;SDS011;44792;52.760;6.726;2022-07-22T04:49:31;8.35;;;2.00;;
59006;SDS011;44792;52.760;6.726;2022-07-22T04:51:56;14.25;;;2.80;;
59006;SDS011;44792;52.760;6.726;2022-07-22T04:54:22;10.90;;;2.03;;
59006;SDS011;44792;52.760;6.726;2022-07-22T04:56:47;6.65;;;2.42;;
59006;SDS011;44792;52.760;6.726;2022-07-22T04:59:13;7.78;;;2.55;;
59006;SDS011;44792;52.760;6.726;2022-07-22T05:01:38;10.15;;;2.60;;
59006;SDS011;44792;52.760;6.726;2022-07-22T05:04:04;6.15;;;2.40;;
59006;SDS011;44792;52.760;6.726;2022-07-22T05:06:29;9.55;;;2.90;;
59006;SDS011;44792;52.760;6.726;2022-07-22T05:08:55;9.50;;;2.90;;
59006;SDS011;44792;52.760;6.726;2022-07-22T05:11:21;7.95;;;2.45;;
59006;SDS011;44792;52.760;6.726;2022-07-22T05:13:46;8.25;;;2.20;;
59006;SDS011;44792;52.760;6.726;2022-07-22T05:16:12;8.93;;;2.33;;
59006;SDS011;44792;52.760;6.726;2022-07-22T05:18:37;8.15;;;2.90;;
59006;SDS011;44792;52.760;6.726;2022-07-22T05:21:03;5.70;;;2.45;;
59006;SDS011;44792;52.760;6.726;2022-07-22T05:23:29;9.15;;;2.30;;
59006;SDS011;44792;52.760;6.726;2022-07-22T05:25:55;9.50;;;3.03;;
59006;SDS011;44792;52.760;6.726;2022-07-22T05:28:20;7.53;;;2.38;;
59006;SDS011;44792;52.760;6.726;2022-07-22T05:30:46;8.50;;;2.50;;
59006;SDS011;44792;52.760;6.726;2022-07-22T05:33:12;10.27;;;3.20;;
59006;SDS011;44792;52.760;6.726;2022-07-22T05:35:37;7.00;;;2.60;;
59006;SDS011;44792;52.760;6.726;2022-07-22T05:38:03;5.20;;;2.70;;
59006;SDS011;44792;52.760;6.726;2022-07-22T05:40:30;9.48;;;2.75;;
59006;SDS011;44792;52.760;6.726;2022-07-22T05:42:56;6.70;;;2.90;;
59006;SDS011;44792;52.760;6.726;2022-07-22T05:45:21;12.60;;;2.70;;
59006;SDS011;44792;52.760;6.726;2022-07-22T05:47:47;7.03;;;2.33;;
59006;SDS011;44792;52.760;6.726;2022-07-22T05:50:12;10.20;;;2.65;;
59006;SDS011;44792;52.760;6.726;2022-07-22T05:52:38;5.93;;;2.10;;
59006;SDS011;44792;52.760;6.726;2022-07-22T05:55:04;5.18;;;2.30;;
59006;SDS011;44792;52.760;6.726;2022-07-22T05:57:31;10.65;;;2.40;;
59006;SDS011;44792;52.760;6.726;2022-07-22T05:59:56;10.32;;;2.75;;
59006;SDS011;44792;52.760;6.726;2022-07-22T06:02:22;6.22;;;2.38;;
59006;SDS011;44792;52.760;6.726;2022-07-22T06:04:47;5.47;;;2.58;;
59006;SDS011;44792;52.760;6.726;2022-07-22T06:07:13;11.70;;;2.58;;
59006;SDS011;44792;52.760;6.726;2022-07-22T06:09:39;6.30;;;2.10;;
59006;SDS011;44792;52.760;6.726;2022-07-22T06:12:04;9.15;;;2.47;;
59006;SDS011;44792;52.760;6.726;2022-07-22T06:14:30;12.43;;;2.70;;
59006;SDS011;44792;52.760;6.726;2022-07-22T06:16:56;9.48;;;2.33;;
59006;SDS011;44792;52.760;6.726;2022-07-22T06:19:22;9.95;;;2.75;;
59006;SDS011;44792;52.760;6.726;2022-07-22T06:21:49;9.90;;;2.60;;
59006;SDS011;44792;52.760;6.726;2022-07-22T06:24:15;9.82;;;2.25;;
59006;SDS011;44792;52.760;6.726;2022-07-22T06:26:41;6.32;;;2.15;;
59006;SDS011;44792;52.760;6.726;2022-07-22T06:29:06;9.88;;;2.28;;
59006;SDS011;44792;52.760;6.726;2022-07-22T06:31:32;4.68;;;2.00;;
59006;SDS011;44792;52.760;6.726;2022-07-22T06:33:57;6.63;;;2.50;;
59006;SDS011;44792;52.760;6.726;2022-07-22T06:36:23;6.50;;;2.00;;
59006;SDS011;44792;52.760;6.726;2022-07-22T06:38:48;7.32;;;2.33;;
59006;SDS011;44792;52.760;6.726;2022-07-22T06:41:14;7.65;;;2.17;;
59006;SDS011;44792;52.760;6.726;2022-07-22T06:43:43;6.78;;;2.22;;
59006;SDS011;44792;52.760;6.726;2022-07-22T06:46:09;7.68;;;2.30;;
59006;SDS011;44792;52.760;6.726;2022-07-22T06:48:34;8.52;;;2.42;;
59006;SDS011;44792;52.760;6.726;2022-07-22T06:51:00;7.80;;;2.55;;
59006;SDS011;44792;52.760;6.726;2022-07-22T06:53:25;7.78;;;2.15;;
59006;SDS011;44792;52.760;6.726;2022-07-22T06:55:51;8.07;;;2.60;;
59006;SDS011;44792;52.760;6.726;2022-07-22T06:58:16;8.13;;;2.33;;
59006;SDS011;44792;52.760;6.726;2022-07-22T07:00:42;5.47;;;1.98;;
59006;SDS011;44792;52.760;6.726;2022-07-22T07:03:07;5.65;;;2.35;;
59006;SDS011;44792;52.760;6.726;2022-07-22T07:05:33;7.20;;;2.33;;
59006;SDS011;44792;52.760;6.726;2022-07-22T07:07:58;8.20;;;2.38;;
59006;SDS011;44792;52.760;6.726;2022-07-22T07:10:24;5.95;;;2.20;;
59006;SDS011;44792;52.760;6.726;2022-07-22T07:12:50;6.80;;;1.95;;
59006;SDS011;44792;52.760;6.726;2022-07-22T07:15:20;8.80;;;2.22;;
59006;SDS011;44792;52.760;6.726;2022-07-22T07:17:46;8.02;;;2.25;;
59006;SDS011;44792;52.760;6.726;2022-07-22T07:20:11;5.10;;;2.20;;
59006;SDS011;44792;52.760;6.726;2022-07-22T07:22:37;6.75;;;2.38;;
59006;SDS011;44792;52.760;6.726;2022-07-22T07:25:03;7.68;;;2.45;;
59006;SDS011;44792;52.760;6.726;2022-07-22T07:27:29;4.88;;;2.10;;
59006;SDS011;44792;52.760;6.726;2022-07-22T07:29:55;7.22;;;2.00;;
59006;SDS011;44792;52.760;6.726;2022-07-22T07:32:21;7.20;;;2.47;;
59006;SDS011;44792;52.760;6.726;2022-07-22T07:34:46;5.65;;;1.77;;
59006;SDS011;44792;52.760;6.726;2022-07-22T07:37:12;7.68;;;1.90;;
59006;SDS011;44792;52.760;6.726;2022-07-22T07:39:38;9.57;;;2.25;;
59006;SDS011;44792;52.760;6.726;2022-07-22T07:42:04;8.60;;;1.92;;
59006;SDS011;44792;52.760;6.726;2022-07-22T07:44:29;8.75;;;2.30;;
59006;SDS011;44792;52.760;6.726;2022-07-22T07:46:55;10.52;;;2.10;;
59006;SDS011;44792;52.760;6.726;2022-07-22T07:49:20;8.27;;;2.38;;
59006;SDS011;44792;52.760;6.726;2022-07-22T07:51:46;8.15;;;2.10;;
59006;SDS011;44792;52.760;6.726;2022-07-22T07:54:12;8.10;;;2.40;;
59006;SDS011;44792;52.760;6.726;2022-07-22T07:56:37;17.95;;;2.50;;
59006;SDS011;44792;52.760;6.726;2022-07-22T07:59:03;5.22;;;1.90;;
59006;SDS011;44792;52.760;6.726;2022-07-22T08:01:28;9.43;;;1.90;;
59006;SDS011;44792;52.760;6.726;2022-07-22T08:03:54;4.88;;;1.73;;
59006;SDS011;44792;52.760;6.726;2022-07-22T08:06:19;8.20;;;2.08;;
59006;SDS011;44792;52.760;6.726;2022-07-22T08:08:45;6.00;;;2.40;;
59006;SDS011;44792;52.760;6.726;2022-07-22T08:11:10;7.15;;;1.80;;
59006;SDS011;44792;52.760;6.726;2022-07-22T08:13:36;4.53;;;1.75;;
59006;SDS011;44792;52.760;6.726;2022-07-22T08:16:02;7.82;;;1.90;;
59006;SDS011;44792;52.760;6.726;2022-07-22T08:18:28;5.40;;;1.75;;
59006;SDS011;44792;52.760;6.726;2022-07-22T08:20:54;2.85;;;1.95;;
59006;SDS011;44792;52.760;6.726;2022-07-22T08:23:20;4.85;;;1.80;;
59006;SDS011;44792;52.760;6.726;2022-07-22T08:25:46;9.27;;;1.73;;
59006;SDS011;44792;52.760;6.726;2022-07-22T08:28:11;3.40;;;1.48;;
59006;SDS011;44792;52.760;6.726;2022-07-22T08:30:37;7.45;;;1.83;;
59006;SDS011;44792;52.760;6.726;2022-07-22T08:33:04;6.63;;;1.90;;
59006;SDS011;44792;52.760;6.726;2022-07-22T08:35:30;2.85;;;1.70;;
59006;SDS011;44792;52.760;6.726;2022-07-22T08:37:55;4.70;;;1.83;;
59006;SDS011;44792;52.760;6.726;2022-07-22T08:40:21;5.55;;;1.75;;
59006;SDS011;44792;52.760;6.726;2022-07-22T08:42:47;6.30;;;1.70;;
59006;SDS011;44792;52.760;6.726;2022-07-22T08:45:13;3.88;;;1.80;;
59006;SDS011;44792;52.760;6.726;2022-07-22T08:47:40;6.93;;;1.88;;
59006;SDS011;44792;52.760;6.726;2022-07-22T08:50:10;9.77;;;1.90;;
59006;SDS011;44792;52.760;6.726;2022-07-22T08:52:36;5.60;;;1.80;;
59006;SDS011;44792;52.760;6.726;2022-07-22T08:55:02;8.55;;;2.00;;
59006;SDS011;44792;52.760;6.726;2022-07-22T08:57:29;4.10;;;1.58;;
59006;SDS011;44792;52.760;6.726;2022-07-22T08:59:57;4.00;;;1.50;;
59006;SDS011;44792;52.760;6.726;2022-07-22T09:02:23;6.93;;;1.73;;
59006;SDS011;44792;52.760;6.726;2022-07-22T09:07:22;5.28;;;2.00;;
59006;SDS011;44792;52.760;6.726;2022-07-22T09:09:51;6.13;;;1.60;;
59006;SDS011;44792;52.760;6.726;2022-07-22T09:12:17;5.55;;;1.80;;
59006;SDS011;44792;52.760;6.726;2022-07-22T09:14:47;7.13;;;1.95;;
59006;SDS011;44792;52.760;6.726;2022-07-22T09:17:27;13.27;;;2.00;;
59006;SDS011;44792;52.760;6.726;2022-07-22T09:20:05;5.10;;;1.65;;
59006;SDS011;44792;52.760;6.726;2022-07-22T09:22:44;6.55;;;1.80;;
59006;SDS011;44792;52.760;6.726;2022-07-22T09:25:28;5.15;;;1.70;;
59006;SDS011;44792;52.760;6.726;2022-07-22T09:28:12;4.60;;;1.38;;
59006;SDS011;44792;52.760;6.726;2022-07-22T09:30:40;4.22;;;1.80;;
59006;SDS011;44792;52.760;6.726;2022-07-22T09:33:14;8.63;;;1.73;;
59006;SDS011;44792;52.760;6.726;2022-07-22T09:35:39;5.55;;;1.77;;
59006;SDS011;44792;52.760;6.726;2022-07-22T09:38:06;3.45;;;1.80;;
59006;SDS011;44792;52.760;6.726;2022-07-22T09:40:34;5.72;;;1.35;;
59006;SDS011;44792;52.760;6.726;2022-07-22T09:43:03;7.50;;;1.73;;
59006;SDS011;44792;52.760;6.726;2022-07-22T09:45:31;4.60;;;1.65;;
59006;SDS011;44792;52.760;6.726;2022-07-22T09:47:59;4.53;;;1.42;;
59006;SDS011;44792;52.760;6.726;2022-07-22T09:52:51;4.57;;;1.65;;
59006;SDS011;44792;52.760;6.726;2022-07-22T09:55:19;3.95;;;1.70;;
59006;SDS011;44792;52.760;6.726;2022-07-22T09:57:46;5.50;;;1.83;;
59006;SDS011;44792;52.760;6.726;2022-07-22T10:00:13;6.47;;;1.73;;
59006;SDS011;44792;52.760;6.726;2022-07-22T10:02:45;3.15;;;1.70;;
59006;SDS011;44792;52.760;6.726;2022-07-22T10:05:22;5.07;;;1.83;;
59006;SDS011;44792;52.760;6.726;2022-07-22T10:07:53;5.88;;;1.60;;
59006;SDS011;44792;52.760;6.726;2022-07-22T10:10:20;4.97;;;1.80;;
59006;SDS011;44792;52.760;6.726;2022-07-22T10:12:51;6.43;;;2.10;;
59006;SDS011;44792;52.760;6.726;2022-07-22T10:15:18;4.03;;;1.60;;
59006;SDS011;44792;52.760;6.726;2022-07-22T10:17:46;5.78;;;1.80;;
59006;SDS011;44792;52.760;6.726;2022-07-22T10:20:13;4.65;;;1.60;;
59006;SDS011;44792;52.760;6.726;2022-07-22T10:22:47;4.50;;;1.50;;
59006;SDS011;44792;52.760;6.726;2022-07-22T10:25:18;5.82;;;1.92;;
59006;SDS011;44792;52.760;6.726;2022-07-22T10:33:01;4.55;;;1.60;;
59006;SDS011;44792;52.760;6.726;2022-07-22T10:35:32;8.15;;;1.88;;
59006;SDS011;44792;52.760;6.726;2022-07-22T10:38:00;5.15;;;1.75;;
59006;SDS011;44792;52.760;6.726;2022-07-22T10:40:31;5.25;;;1.80;;
59006;SDS011;44792;52.760;6.726;2022-07-22T10:43:22;7.38;;;1.73;;
59006;SDS011;44792;52.760;6.726;2022-07-22T10:45:59;4.68;;;1.20;;
59006;SDS011;44792;52.760;6.726;2022-07-22T10:58:47;3.05;;;1.60;;
59006;SDS011;44792;52.760;6.726;2022-07-22T11:01:16;3.78;;;1.50;;
59006;SDS011;44792;52.760;6.726;2022-07-22T11:03:44;8.05;;;1.40;;
59006;SDS011;44792;52.760;6.726;2022-07-22T11:08:57;4.85;;;1.50;;
59006;SDS011;44792;52.760;6.726;2022-07-22T11:11:31;6.55;;;1.70;;
59006;SDS011;44792;52.760;6.726;2022-07-22T11:13:59;3.75;;;1.42;;
59006;SDS011;44792;52.760;6.726;2022-07-22T11:16:26;4.03;;;1.52;;
59006;SDS011;44792;52.760;6.726;2022-07-22T11:18:59;2.72;;;1.50;;
59006;SDS011;44792;52.760;6.726;2022-07-22T11:21:28;3.03;;;1.13;;
59006;SDS011;44792;52.760;6.726;2022-07-22T11:23:56;4.95;;;1.67;;
59006;SDS011;44792;52.760;6.726;2022-07-22T11:26:36;10.35;;;1.63;;
59006;SDS011;44792;52.760;6.726;2022-07-22T11:29:07;3.72;;;1.80;;
59006;SDS011;44792;52.760;6.726;2022-07-22T11:31:33;4.22;;;1.55;;
59006;SDS011;44792;52.760;6.726;2022-07-22T11:34:35;4.90;;;1.73;;
59006;SDS011;44792;52.760;6.726;2022-07-22T11:36:52;10.25;;;1.70;;
59006;SDS011;44792;52.760;6.726;2022-07-22T11:39:28;9.43;;;1.83;;
59006;SDS011;44792;52.760;6.726;2022-07-22T11:41:55;4.22;;;1.63;;
59006;SDS011;44792;52.760;6.726;2022-07-22T11:44:24;4.20;;;1.50;;
59006;SDS011;44792;52.760;6.726;2022-07-22T11:46:54;3.13;;;1.42;;
59006;SDS011;44792;52.760;6.726;2022-07-22T11:49:23;4.93;;;1.80;;
59006;SDS011;44792;52.760;6.726;2022-07-22T11:51:50;4.75;;;1.67;;
59006;SDS011;44792;52.760;6.726;2022-07-22T11:54:16;8.00;;;1.50;;
59006;SDS011;44792;52.760;6.726;2022-07-22T11:56:42;2.30;;;1.20;;
59006;SDS011;44792;52.760;6.726;2022-07-22T11:59:08;4.85;;;1.70;;
59006;SDS011;44792;52.760;6.726;2022-07-22T12:01:37;1.70;;;1.60;;
59006;SDS011;44792;52.760;6.726;2022-07-22T12:04:04;5.25;;;1.55;;
59006;SDS011;44792;52.760;6.726;2022-07-22T12:06:32;7.70;;;1.60;;
59006;SDS011;44792;52.760;6.726;2022-07-22T12:09:04;5.55;;;1.70;;
59006;SDS011;44792;52.760;6.726;2022-07-22T12:11:43;6.90;;;1.60;;
59006;SDS011;44792;52.760;6.726;2022-07-22T12:14:14;7.22;;;1.83;;
59006;SDS011;44792;52.760;6.726;2022-07-22T12:16:41;4.65;;;1.75;;
59006;SDS011;44792;52.760;6.726;2022-07-22T12:19:09;6.45;;;1.20;;
59006;SDS011;44792;52.760;6.726;2022-07-22T12:21:48;3.90;;;1.45;;
59006;SDS011;44792;52.760;6.726;2022-07-22T12:24:30;9.45;;;1.73;;
59006;SDS011;44792;52.760;6.726;2022-07-22T12:27:04;8.65;;;1.50;;
59006;SDS011;44792;52.760;6.726;2022-07-22T12:34:48;5.22;;;1.60;;
59006;SDS011;44792;52.760;6.726;2022-07-22T12:37:25;5.78;;;1.65;;
59006;SDS011;44792;52.760;6.726;2022-07-22T12:39:57;3.73;;;1.50;;
59006;SDS011;44792;52.760;6.726;2022-07-22T12:45:04;9.60;;;1.60;;
59006;SDS011;44792;52.760;6.726;2022-07-22T12:47:48;2.65;;;1.58;;
59006;SDS011;44792;52.760;6.726;2022-07-22T12:52:48;5.47;;;1.92;;
59006;SDS011;44792;52.760;6.726;2022-07-22T12:55:16;4.47;;;1.45;;
59006;SDS011;44792;52.760;6.726;2022-07-22T12:57:42;4.53;;;1.60;;
59006;SDS011;44792;52.760;6.726;2022-07-22T13:00:08;5.55;;;1.63;;
59006;SDS011;44792;52.760;6.726;2022-07-22T13:02:34;2.65;;;1.33;;
59006;SDS011;44792;52.760;6.726;2022-07-22T13:04:59;4.80;;;1.67;;
59006;SDS011;44792;52.760;6.726;2022-07-22T13:07:25;9.18;;;1.52;;
59006;SDS011;44792;52.760;6.726;2022-07-22T13:09:51;3.85;;;1.50;;
59006;SDS011;44792;52.760;6.726;2022-07-22T13:12:16;2.10;;;1.48;;
59006;SDS011;44792;52.760;6.726;2022-07-22T13:14:42;3.97;;;1.50;;
59006;SDS011;44792;52.760;6.726;2022-07-22T13:17:08;1.98;;;1.40;;
59006;SDS011;44792;52.760;6.726;2022-07-22T13:19:33;5.57;;;1.42;;
59006;SDS011;44792;52.760;6.726;2022-07-22T13:21:59;5.70;;;1.17;;
59006;SDS011;44792;52.760;6.726;2022-07-22T13:24:24;2.92;;;1.40;;
59006;SDS011;44792;52.760;6.726;2022-07-22T13:26:50;3.65;;;1.67;;
59006;SDS011;44792;52.760;6.726;2022-07-22T13:29:16;8.02;;;1.92;;
59006;SDS011;44792;52.760;6.726;2022-07-22T13:31:42;4.97;;;1.70;;
59006;SDS011;44792;52.760;6.726;2022-07-22T13:34:07;1.77;;;1.50;;
59006;SDS011;44792;52.760;6.726;2022-07-22T13:36:33;7.63;;;1.95;;
59006;SDS011;44792;52.760;6.726;2022-07-22T13:38:59;5.28;;;1.70;;
59006;SDS011;44792;52.760;6.726;2022-07-22T13:41:25;11.40;;;1.63;;
59006;SDS011;44792;52.760;6.726;2022-07-22T13:43:51;5.10;;;1.48;;
59006;SDS011;44792;52.760;6.726;2022-07-22T13:46:17;3.10;;;1.25;;
59006;SDS011;44792;52.760;6.726;2022-07-22T13:48:43;4.60;;;1.55;;
59006;SDS011;44792;52.760;6.726;2022-07-22T13:51:10;2.88;;;1.50;;
59006;SDS011;44792;52.760;6.726;2022-07-22T13:53:36;9.18;;;1.67;;
59006;SDS011;44792;52.760;6.726;2022-07-22T13:56:02;6.50;;;1.60;;
59006;SDS011;44792;52.760;6.726;2022-07-22T13:58:28;3.50;;;1.33;;
59006;SDS011;44792;52.760;6.726;2022-07-22T14:00:54;5.20;;;1.38;;
59006;SDS011;44792;52.760;6.726;2022-07-22T14:03:20;3.03;;;1.40;;
59006;SDS011;44792;52.760;6.726;2022-07-22T14:05:46;3.72;;;1.40;;
59006;SDS011;44792;52.760;6.726;2022-07-22T14:08:11;9.38;;;1.85;;
59006;SDS011;44792;52.760;6.726;2022-07-22T14:10:37;6.30;;;1.45;;
59006;SDS011;44792;52.760;6.726;2022-07-22T14:13:03;4.03;;;1.45;;
59006;SDS011;44792;52.760;6.726;2022-07-22T14:15:29;5.75;;;1.50;;
59006;SDS011;44792;52.760;6.726;2022-07-22T14:17:54;5.20;;;1.38;;
59006;SDS011;44792;52.760;6.726;2022-07-22T14:20:20;2.88;;;1.10;;
59006;SDS011;44792;52.760;6.726;2022-07-22T14:22:46;4.13;;;1.38;;
59006;SDS011;44792;52.760;6.726;2022-07-22T14:25:11;5.05;;;1.25;;
59006;SDS011;44792;52.760;6.726;2022-07-22T14:27:37;6.88;;;1.50;;
59006;SDS011;44792;52.760;6.726;2022-07-22T14:30:03;5.70;;;1.38;;
59006;SDS011;44792;52.760;6.726;2022-07-22T14:32:28;4.10;;;1.60;;
59006;SDS011;44792;52.760;6.726;2022-07-22T14:34:54;4.63;;;1.48;;
59006;SDS011;44792;52.760;6.726;2022-07-22T14:37:20;3.33;;;1.15;;
59006;SDS011;44792;52.760;6.726;2022-07-22T14:39:46;4.53;;;1.30;;
59006;SDS011;44792;52.760;6.726;2022-07-22T14:42:12;3.08;;;1.20;;
59006;SDS011;44792;52.760;6.726;2022-07-22T14:44:37;4.63;;;1.30;;
59006;SDS011;44792;52.760;6.726;2022-07-22T14:47:03;5.10;;;1.38;;
59006;SDS011;44792;52.760;6.726;2022-07-22T14:49:29;2.42;;;1.35;;
59006;SDS011;44792;52.760;6.726;2022-07-22T14:51:54;3.65;;;1.30;;
59006;SDS011;44792;52.760;6.726;2022-07-22T14:54:20;5.93;;;1.38;;
59006;SDS011;44792;52.760;6.726;2022-07-22T14:56:45;1.33;;;1.08;;
59006;SDS011;44792;52.760;6.726;2022-07-22T14:59:11;2.50;;;1.40;;
59006;SDS011;44792;52.760;6.726;2022-07-22T15:01:36;2.83;;;1.45;;
59006;SDS011;44792;52.760;6.726;2022-07-22T15:04:02;6.07;;;2.15;;
59006;SDS011;44792;52.760;6.726;2022-07-22T15:06:28;3.45;;;1.90;;
59006;SDS011;44792;52.760;6.726;2022-07-22T15:08:53;5.25;;;1.92;;
59006;SDS011;44792;52.760;6.726;2022-07-22T15:11:19;3.33;;;1.90;;
59006;SDS011;44792;52.760;6.726;2022-07-22T15:13:44;5.55;;;1.92;;
59006;SDS011;44792;52.760;6.726;2022-07-22T15:16:10;4.53;;;1.80;;